createdAt,value
2018-07-15T00:02:05.293Z,19.50
2018-07-15T00:04:33.662Z,19.40
2018-07-15T00:07:02.053Z,19.40
2018-07-15T00:09:30.406Z,19.40
2018-07-15T00:11:58.798Z,19.30
2018-07-15T00:14:27.157Z,19.20
2018-07-15T00:16:55.569Z,19.10
2018-07-15T00:19:23.913Z,19.10
2018-07-15T00:21:53.134Z,19.10
2018-07-15T00:24:21.505Z,19.10
2018-07-15T00:26:50.074Z,19.00
2018-07-15T00:29:18.417Z,19.00
2018-07-15T00:31:46.805Z,18.90
2018-07-15T00:34:15.168Z,18.80
2018-07-15T00:36:43.569Z,18.80
2018-07-15T00:39:11.911Z,18.80
2018-07-15T00:41:40.369Z,18.80
2018-07-15T00:44:08.741Z,18.80
2018-07-15T00:46:37.093Z,18.80
2018-07-15T00:49:05.446Z,18.80
2018-07-15T00:51:33.838Z,18.80
2018-07-15T00:54:02.462Z,18.70
2018-07-15T00:56:30.829Z,18.70
2018-07-15T00:58:59.209Z,18.70
2018-07-15T01:01:27.587Z,18.70
2018-07-15T01:03:55.990Z,18.70
2018-07-15T01:06:24.437Z,18.70
2018-07-15T01:08:52.869Z,18.60
2018-07-15T01:11:21.306Z,18.50
2018-07-15T01:13:49.694Z,18.50
2018-07-15T01:16:18.061Z,18.50
2018-07-15T01:18:46.443Z,18.50
2018-07-15T01:21:14.866Z,18.30
2018-07-15T01:23:43.249Z,18.30
2018-07-15T01:26:11.638Z,18.20
2018-07-15T01:28:40.022Z,18.10
2018-07-15T01:31:08.412Z,18.00
2018-07-15T01:33:36.786Z,18.00
2018-07-15T01:36:05.181Z,18.00
2018-07-15T01:38:33.558Z,17.90
2018-07-15T01:41:01.970Z,17.90
2018-07-15T01:43:30.405Z,18.00
2018-07-15T01:45:58.762Z,18.00
2018-07-15T01:48:27.149Z,18.00
2018-07-15T01:50:55.538Z,18.00
2018-07-15T01:53:23.918Z,17.90
2018-07-15T01:55:52.306Z,17.90
2018-07-15T01:58:20.694Z,17.80
2018-07-15T02:00:49.065Z,17.70
2018-07-15T02:03:17.454Z,17.70
2018-07-15T02:05:45.818Z,17.60
2018-07-15T02:08:14.366Z,17.60
2018-07-15T02:10:42.726Z,17.50
2018-07-15T02:13:11.117Z,17.60
2018-07-15T02:15:39.497Z,17.60
2018-07-15T02:18:07.922Z,17.60
2018-07-15T02:20:36.305Z,17.60
2018-07-15T02:23:04.701Z,17.50
2018-07-15T02:25:33.093Z,17.40
2018-07-15T02:28:01.477Z,17.40
2018-07-15T02:30:29.881Z,17.40
2018-07-15T02:32:58.270Z,17.40
2018-07-15T02:35:26.678Z,17.40
2018-07-15T02:37:55.135Z,17.40
2018-07-15T02:40:23.509Z,17.40
2018-07-15T02:42:51.945Z,17.40
2018-07-15T02:45:20.362Z,17.40
2018-07-15T02:47:48.754Z,17.50
2018-07-15T02:50:17.129Z,17.50
2018-07-15T02:52:45.515Z,17.50
2018-07-15T02:55:13.969Z,17.50
2018-07-15T02:57:42.329Z,17.50
2018-07-15T03:00:10.709Z,17.40
2018-07-15T03:02:39.078Z,17.40
2018-07-15T03:05:07.487Z,17.40
2018-07-15T03:07:35.841Z,17.40
2018-07-15T03:10:04.262Z,17.30
2018-07-15T03:12:32.621Z,17.30
2018-07-15T03:15:01.625Z,17.20
2018-07-15T03:17:30.034Z,17.20
2018-07-15T03:19:58.415Z,17.10
2018-07-15T03:22:26.754Z,17.10
2018-07-15T03:24:55.130Z,17.10
2018-07-15T03:27:23.482Z,17.10
2018-07-15T03:29:51.856Z,17.10
2018-07-15T03:32:20.221Z,17.10
2018-07-15T03:34:48.589Z,17.10
2018-07-15T03:37:16.949Z,17.00
2018-07-15T03:39:45.321Z,16.90
2018-07-15T03:42:13.689Z,16.90
2018-07-15T03:44:42.077Z,16.90
2018-07-15T03:47:10.425Z,17.00
2018-07-15T03:49:38.817Z,17.00
2018-07-15T03:52:07.222Z,17.10
2018-07-15T03:54:35.622Z,17.10
2018-07-15T03:57:04.022Z,17.10
2018-07-15T03:59:32.402Z,17.10
2018-07-15T04:02:00.926Z,17.10
2018-07-15T04:04:29.309Z,17.10
2018-07-15T04:06:57.666Z,17.10
2018-07-15T04:09:26.044Z,17.10
2018-07-15T04:11:54.394Z,17.10
2018-07-15T04:14:22.776Z,17.00
2018-07-15T04:16:51.137Z,17.00
2018-07-15T04:19:19.520Z,17.00
2018-07-15T04:21:47.869Z,16.90
2018-07-15T04:24:16.402Z,17.00
2018-07-15T04:26:44.751Z,17.00
2018-07-15T04:29:13.150Z,17.00
2018-07-15T04:31:41.501Z,17.00
2018-07-15T04:34:09.894Z,17.10
2018-07-15T04:36:38.257Z,17.10
2018-07-15T04:39:07.834Z,17.20
2018-07-15T04:41:36.206Z,17.20
2018-07-15T04:44:04.626Z,17.20
2018-07-15T04:46:32.973Z,17.30
2018-07-15T04:49:01.444Z,17.30
2018-07-15T04:51:29.809Z,17.30
2018-07-15T04:53:58.181Z,17.30
2018-07-15T04:56:26.549Z,17.30
2018-07-15T04:58:54.937Z,17.40
2018-07-15T05:01:23.445Z,17.40
2018-07-15T05:03:51.850Z,17.50
2018-07-15T05:06:20.237Z,17.50
2018-07-15T05:08:48.575Z,17.60
2018-07-15T05:11:17.022Z,17.60
2018-07-15T05:13:45.321Z,17.70
2018-07-15T05:16:13.694Z,17.80
2018-07-15T05:18:42.068Z,17.80
2018-07-15T05:21:10.433Z,17.90
2018-07-15T05:23:38.793Z,17.90
2018-07-15T05:26:07.158Z,18.00
2018-07-15T05:28:35.511Z,18.20
2018-07-15T05:31:03.881Z,18.40
2018-07-15T05:33:32.250Z,18.50
2018-07-15T05:36:00.633Z,18.80
2018-07-15T05:38:29.006Z,19.10
2018-07-15T05:40:57.397Z,19.30
2018-07-15T05:43:25.773Z,19.70
2018-07-15T05:45:54.140Z,20.00
2018-07-15T05:48:22.501Z,20.30
2018-07-15T05:50:50.896Z,20.60
2018-07-15T05:53:19.245Z,20.70
2018-07-15T05:55:47.858Z,21.10
2018-07-15T05:58:16.277Z,21.40
2018-07-15T06:00:44.690Z,21.70
2018-07-15T06:03:13.128Z,22.00
2018-07-15T06:05:41.682Z,22.20
2018-07-15T06:08:10.086Z,22.50
2018-07-15T06:10:38.525Z,22.70
2018-07-15T06:13:06.926Z,22.80
2018-07-15T06:15:35.326Z,23.10
2018-07-15T06:18:03.835Z,23.40
2018-07-15T06:20:32.193Z,23.60
2018-07-15T06:23:00.664Z,23.80
2018-07-15T06:25:29.109Z,23.90
2018-07-15T06:27:57.497Z,23.90
2018-07-15T06:30:25.901Z,24.10
2018-07-15T06:32:54.261Z,24.20
2018-07-15T06:35:22.691Z,24.40
2018-07-15T06:37:51.318Z,24.50
2018-07-15T06:40:19.714Z,24.40
2018-07-15T06:42:48.078Z,24.70
2018-07-15T06:45:16.460Z,24.90
2018-07-15T06:47:44.846Z,25.10
2018-07-15T06:50:13.240Z,25.30
2018-07-15T06:52:41.622Z,25.40
2018-07-15T06:55:10.064Z,25.30
2018-07-15T06:57:38.457Z,25.10
2018-07-15T07:00:07.882Z,25.10
2018-07-15T07:02:36.269Z,25.40
2018-07-15T07:05:04.669Z,25.50
2018-07-15T07:07:33.156Z,25.60
2018-07-15T07:10:01.485Z,25.70
2018-07-15T07:12:29.908Z,26.00
2018-07-15T07:14:58.321Z,26.40
2018-07-15T07:17:26.709Z,26.70
2018-07-15T07:19:55.134Z,26.90
2018-07-15T07:22:23.550Z,26.80
2018-07-15T07:24:51.907Z,26.70
2018-07-15T07:27:20.317Z,26.50
2018-07-15T07:29:48.671Z,26.50
2018-07-15T07:32:17.116Z,26.70
2018-07-15T07:34:45.490Z,26.90
2018-07-15T07:37:13.895Z,26.80
2018-07-15T07:39:42.434Z,26.90
2018-07-15T07:42:10.850Z,26.90
2018-07-15T07:44:39.332Z,27.10
2018-07-15T07:47:07.750Z,26.40
2018-07-15T07:49:36.113Z,26.40
2018-07-15T07:52:04.501Z,26.80
2018-07-15T07:54:32.877Z,27.10
2018-07-15T07:57:01.278Z,27.40
2018-07-15T07:59:29.713Z,27.50
2018-07-15T08:01:58.140Z,27.40
2018-07-15T08:04:26.516Z,27.10
2018-07-15T08:06:54.898Z,26.90
2018-07-15T08:09:23.263Z,27.10
2018-07-15T08:11:51.673Z,27.20
2018-07-15T08:14:20.041Z,27.30
2018-07-15T08:19:11.170Z,27.50
2018-07-15T08:21:39.558Z,27.70
2018-07-15T08:24:08.490Z,27.80
2018-07-15T08:26:36.881Z,28.00
2018-07-15T08:29:05.396Z,28.30
2018-07-15T08:31:33.782Z,28.50
2018-07-15T08:34:02.217Z,28.50
2018-07-15T08:36:30.618Z,28.60
2018-07-15T08:38:59.363Z,28.60
2018-07-15T08:41:27.792Z,28.70
2018-07-15T08:43:56.178Z,28.70
2018-07-15T08:46:24.602Z,28.60
2018-07-15T08:48:53.330Z,28.70
2018-07-15T08:51:21.990Z,28.70
2018-07-15T08:53:50.406Z,28.70
2018-07-15T08:56:18.791Z,28.90
2018-07-15T08:58:47.180Z,29.00
2018-07-15T09:01:15.576Z,28.90
2018-07-15T09:03:43.997Z,28.60
2018-07-15T09:06:12.599Z,28.40
2018-07-15T09:08:41.183Z,28.20
2018-07-15T09:11:09.610Z,28.00
2018-07-15T09:16:06.245Z,28.00
2018-07-15T09:18:34.658Z,27.80
2018-07-15T09:21:03.053Z,28.20
2018-07-15T09:23:31.839Z,28.40
2018-07-15T09:26:00.210Z,28.60
2018-07-15T09:28:28.586Z,28.50
2018-07-15T09:30:56.934Z,28.30
2018-07-15T09:33:25.430Z,28.20
2018-07-15T09:35:53.771Z,28.40
2018-07-15T09:38:22.146Z,28.20
2018-07-15T09:40:50.505Z,28.40
2018-07-15T09:43:18.877Z,28.40
2018-07-15T09:45:47.254Z,28.40
2018-07-15T09:48:15.687Z,28.40
2018-07-15T09:50:44.110Z,28.30
2018-07-15T09:53:12.501Z,28.50
2018-07-15T09:55:40.890Z,28.50
2018-07-15T09:58:09.312Z,28.30
2018-07-15T10:00:43.054Z,28.40
2018-07-15T10:03:11.446Z,28.50
2018-07-15T10:05:39.814Z,28.70
2018-07-15T10:08:08.205Z,28.70
2018-07-15T10:10:36.586Z,28.60
2018-07-15T10:13:04.982Z,28.50
2018-07-15T10:15:33.353Z,28.40
2018-07-15T10:18:01.750Z,28.40
2018-07-15T10:20:30.137Z,28.40
2018-07-15T10:22:58.513Z,28.60
2018-07-15T10:25:26.905Z,28.60
2018-07-15T10:27:55.314Z,28.50
2018-07-15T10:30:23.702Z,28.50
2018-07-15T10:32:52.442Z,28.60
2018-07-15T10:35:20.813Z,28.40
2018-07-15T10:37:49.265Z,28.40
2018-07-15T10:40:17.638Z,28.60
2018-07-15T10:42:46.021Z,28.70
2018-07-15T10:45:14.394Z,28.50
2018-07-15T10:47:42.878Z,28.60
2018-07-15T10:50:11.286Z,28.60
2018-07-15T10:52:39.677Z,28.70
2018-07-15T10:55:08.587Z,29.00
2018-07-15T10:57:37.109Z,29.10
2018-07-15T11:00:05.893Z,29.10
2018-07-15T11:02:34.238Z,29.20
2018-07-15T11:05:02.667Z,29.20
2018-07-15T11:07:31.070Z,29.30
2018-07-15T11:09:59.474Z,29.40
2018-07-15T11:12:27.818Z,29.20
2018-07-15T11:14:56.190Z,29.00
2018-07-15T11:17:24.545Z,29.10
2018-07-15T11:19:52.905Z,29.20
2018-07-15T11:22:21.581Z,29.00
2018-07-15T11:24:50.013Z,28.90
2018-07-15T11:27:18.383Z,29.00
2018-07-15T11:29:46.779Z,29.10
2018-07-15T11:32:15.139Z,29.20
2018-07-15T11:34:43.634Z,29.10
2018-07-15T11:37:12.005Z,29.10
2018-07-15T11:39:40.393Z,28.90
2018-07-15T11:42:08.738Z,28.80
2018-07-15T11:44:37.193Z,28.80
2018-07-15T11:47:05.714Z,28.90
2018-07-15T11:49:34.090Z,28.90
2018-07-15T11:52:02.442Z,29.00
2018-07-15T11:56:58.938Z,29.10
2018-07-15T11:59:27.357Z,29.20
2018-07-15T12:01:55.937Z,29.30
2018-07-15T12:04:24.285Z,29.40
2018-07-15T12:06:52.658Z,29.50
2018-07-15T12:09:21.042Z,29.50
2018-07-15T12:11:49.410Z,29.60
2018-07-15T12:14:17.881Z,29.60
2018-07-15T12:16:46.262Z,29.30
2018-07-15T12:19:14.677Z,29.30
2018-07-15T12:21:43.054Z,29.40
2018-07-15T12:24:11.426Z,29.10
2018-07-15T12:26:39.805Z,28.90
2018-07-15T12:29:08.445Z,29.00
2018-07-15T12:31:36.873Z,29.30
2018-07-15T12:34:05.253Z,29.50
2018-07-15T12:36:33.653Z,29.60
2018-07-15T12:39:02.017Z,29.60
2018-07-15T12:41:30.425Z,29.70
2018-07-15T12:43:58.793Z,29.40
2018-07-15T12:46:27.205Z,29.50
2018-07-15T12:48:55.569Z,29.50
2018-07-15T12:51:23.946Z,29.50
2018-07-15T12:53:52.313Z,29.50
2018-07-15T12:56:20.737Z,29.60
2018-07-15T12:58:49.437Z,29.20
2018-07-15T13:01:17.820Z,29.10
2018-07-15T13:03:46.186Z,29.10
2018-07-15T13:06:14.593Z,29.10
2018-07-15T13:08:42.953Z,29.10
2018-07-15T13:11:11.350Z,29.10
2018-07-15T13:13:39.718Z,29.00
2018-07-15T13:16:08.176Z,28.80
2018-07-15T13:18:36.573Z,29.00
2018-07-15T13:21:04.953Z,28.90
2018-07-15T13:23:33.366Z,28.70
2018-07-15T13:26:01.756Z,28.70
2018-07-15T13:28:30.175Z,28.80
2018-07-15T13:30:58.712Z,28.70
2018-07-15T13:33:27.117Z,28.60
2018-07-15T13:35:55.626Z,28.60
2018-07-15T13:38:24.053Z,28.60
2018-07-15T13:40:52.423Z,28.50
2018-07-15T13:43:20.805Z,28.20
2018-07-15T13:45:49.175Z,28.20
2018-07-15T13:48:17.553Z,28.20
2018-07-15T13:50:45.922Z,28.20
2018-07-15T13:53:14.325Z,28.40
2018-07-15T13:55:42.741Z,28.50
2018-07-15T13:58:11.138Z,28.50
2018-07-15T14:00:39.514Z,28.60
2018-07-15T14:03:07.928Z,28.60
2018-07-15T14:05:36.326Z,28.60
2018-07-15T14:08:04.994Z,28.60
2018-07-15T14:13:01.506Z,28.30
2018-07-15T14:15:29.869Z,28.20
2018-07-15T14:17:58.269Z,28.40
2018-07-15T14:20:26.649Z,28.30
2018-07-15T14:22:55.021Z,28.30
2018-07-15T14:25:23.382Z,28.40
2018-07-15T14:27:51.794Z,28.50
2018-07-15T14:30:20.133Z,28.50
2018-07-15T14:32:48.494Z,28.60
2018-07-15T14:35:16.834Z,28.70
2018-07-15T14:37:45.214Z,28.60
2018-07-15T14:40:13.574Z,28.60
2018-07-15T14:42:41.990Z,28.60
2018-07-15T14:45:10.369Z,28.60
2018-07-15T14:47:38.738Z,28.60
2018-07-15T14:50:07.202Z,28.70
2018-07-15T14:52:35.821Z,28.80
2018-07-15T14:55:04.290Z,28.90
2018-07-15T14:57:32.681Z,29.00
2018-07-15T15:00:01.080Z,29.00
2018-07-15T15:04:57.557Z,28.60
2018-07-15T15:07:25.924Z,28.40
2018-07-15T15:09:54.270Z,28.30
2018-07-15T15:12:22.645Z,28.20
2018-07-15T15:14:51.193Z,28.30
2018-07-15T15:17:19.570Z,28.10
2018-07-15T15:19:47.930Z,28.10
2018-07-15T15:22:16.362Z,28.10
2018-07-15T15:24:44.734Z,28.20
2018-07-15T15:27:13.242Z,28.30
2018-07-15T15:29:41.582Z,28.40
2018-07-15T15:32:09.986Z,28.60
2018-07-15T15:34:38.342Z,28.70
2018-07-15T15:37:06.737Z,28.70
2018-07-15T15:39:35.098Z,28.50
2018-07-15T15:42:03.689Z,28.40
2018-07-15T15:44:32.093Z,28.20
2018-07-15T15:47:00.457Z,28.10
2018-07-15T15:49:28.869Z,28.10
2018-07-15T15:51:57.245Z,28.20
2018-07-15T15:54:25.662Z,28.30
2018-07-15T15:56:54.053Z,28.30
2018-07-15T15:59:22.433Z,28.20
2018-07-15T16:01:50.813Z,28.10
2018-07-15T16:04:19.253Z,28.00
2018-07-15T16:06:47.651Z,28.10
2018-07-15T16:09:16.158Z,28.10
2018-07-15T16:11:44.526Z,28.10
2018-07-15T16:14:12.905Z,28.10
2018-07-15T16:16:41.303Z,28.00
2018-07-15T16:19:09.708Z,28.00
2018-07-15T16:21:38.088Z,27.90
2018-07-15T16:24:06.686Z,27.80
2018-07-15T16:26:35.053Z,27.70
2018-07-15T16:29:03.469Z,27.70
2018-07-15T16:31:31.957Z,27.70
2018-07-15T16:34:00.341Z,27.80
2018-07-15T16:36:28.801Z,27.80
2018-07-15T16:38:57.205Z,27.80
2018-07-15T16:41:25.561Z,27.80
2018-07-15T16:43:53.982Z,27.70
2018-07-15T16:46:22.373Z,27.70
2018-07-15T16:48:50.754Z,27.80
2018-07-15T16:51:19.113Z,27.90
2018-07-15T16:53:47.579Z,27.90
2018-07-15T16:56:16.035Z,27.90
2018-07-15T16:58:44.424Z,27.80
2018-07-15T17:01:12.795Z,27.80
2018-07-15T17:03:41.185Z,27.70
2018-07-15T17:06:09.591Z,27.70
2018-07-15T17:08:38.047Z,27.70
2018-07-15T17:11:06.740Z,27.70
2018-07-15T17:13:35.366Z,27.50
2018-07-15T17:16:03.924Z,27.40
2018-07-15T17:18:32.311Z,27.50
2018-07-15T17:21:00.690Z,27.50
2018-07-15T17:23:29.190Z,27.50
2018-07-15T17:25:57.601Z,27.40
2018-07-15T17:28:25.993Z,27.40
2018-07-15T17:30:54.473Z,27.30
2018-07-15T17:33:23.022Z,27.20
2018-07-15T17:35:51.394Z,27.10
2018-07-15T17:38:19.801Z,27.20
2018-07-15T17:40:48.201Z,27.20
2018-07-15T17:43:16.662Z,27.10
2018-07-15T17:45:45.097Z,27.10
2018-07-15T17:48:13.474Z,27.10
2018-07-15T17:50:41.997Z,27.10
2018-07-15T17:53:10.462Z,27.00
2018-07-15T17:55:38.861Z,27.00
2018-07-15T17:58:07.230Z,27.00
2018-07-15T18:00:35.606Z,26.80
2018-07-15T18:03:03.978Z,26.80
2018-07-15T18:05:32.402Z,26.80
2018-07-15T18:08:00.806Z,26.80
2018-07-15T18:10:29.712Z,26.70
2018-07-15T18:12:58.094Z,26.70
2018-07-15T18:15:26.501Z,26.60
2018-07-15T18:17:54.940Z,26.60
2018-07-15T18:20:23.409Z,26.50
2018-07-15T18:22:51.786Z,26.50
2018-07-15T18:25:20.180Z,26.50
2018-07-15T18:27:48.547Z,26.40
2018-07-15T18:30:16.971Z,26.30
2018-07-15T18:32:45.346Z,26.20
2018-07-15T18:35:13.757Z,26.20
2018-07-15T18:37:42.174Z,26.10
2018-07-15T18:40:10.572Z,25.90
2018-07-15T18:42:38.967Z,25.90
2018-07-15T18:45:07.515Z,25.80
2018-07-15T18:47:35.733Z,25.80
2018-07-15T18:50:04.189Z,25.80
2018-07-15T18:52:32.565Z,25.70
2018-07-15T18:55:01.037Z,25.70
2018-07-15T18:57:29.441Z,25.60
2018-07-15T18:59:57.890Z,25.60
2018-07-15T19:02:26.258Z,25.50
2018-07-15T19:04:54.682Z,25.40
2018-07-15T19:07:23.077Z,25.30
2018-07-15T19:09:51.446Z,25.20
2018-07-15T19:12:20.591Z,25.10
2018-07-15T19:14:50.087Z,25.10
2018-07-15T19:17:18.865Z,25.00
2018-07-15T19:19:47.349Z,25.00
2018-07-15T19:22:16.634Z,25.00
2018-07-15T19:24:45.484Z,24.90
2018-07-15T19:27:13.830Z,24.80
2018-07-15T19:29:42.230Z,24.70
2018-07-15T19:32:10.729Z,24.70
2018-07-15T19:34:39.098Z,24.60
2018-07-15T19:37:07.467Z,24.50
2018-07-15T19:39:35.953Z,24.50
2018-07-15T19:42:04.339Z,24.50
2018-07-15T19:44:32.745Z,24.40
2018-07-15T19:47:01.242Z,24.30
2018-07-15T19:49:29.595Z,24.20
2018-07-15T19:51:57.973Z,24.10
2018-07-15T19:54:26.421Z,24.00
2018-07-15T19:56:54.814Z,23.90
2018-07-15T19:59:23.190Z,23.90
2018-07-15T20:01:51.633Z,23.80
2018-07-15T20:04:20.009Z,23.80
2018-07-15T20:06:48.542Z,23.70
2018-07-15T20:09:16.911Z,23.60
2018-07-15T20:11:45.289Z,23.50
2018-07-15T20:14:13.692Z,23.40
2018-07-15T20:16:42.080Z,23.40
2018-07-15T20:19:10.449Z,23.30
2018-07-15T20:21:39.005Z,23.30
2018-07-15T20:24:07.378Z,23.20
2018-07-15T20:26:35.797Z,23.10
2018-07-15T20:29:04.233Z,23.00
2018-07-15T20:31:32.666Z,23.00
2018-07-15T20:34:01.131Z,22.90
2018-07-15T20:36:29.562Z,22.90
2018-07-15T20:38:57.942Z,22.80
2018-07-15T20:41:26.360Z,22.80
2018-07-15T20:43:54.723Z,22.70
2018-07-15T20:46:23.153Z,22.70
2018-07-15T20:48:51.555Z,22.70
2018-07-15T20:51:19.942Z,22.70
2018-07-15T20:53:48.318Z,22.60
2018-07-15T20:56:16.752Z,22.60
2018-07-15T20:58:45.070Z,22.60
2018-07-15T21:01:13.460Z,22.60
2018-07-15T21:03:41.857Z,22.50
2018-07-15T21:06:10.236Z,22.50
2018-07-15T21:08:38.585Z,22.50
2018-07-15T21:11:06.957Z,22.50
2018-07-15T21:13:35.356Z,22.40
2018-07-15T21:16:03.766Z,22.40
2018-07-15T21:18:32.137Z,22.30
2018-07-15T21:21:00.505Z,22.20
2018-07-15T21:23:28.870Z,22.20
2018-07-15T21:25:57.286Z,22.10
2018-07-15T21:28:25.650Z,22.10
2018-07-15T21:30:54.049Z,22.00
2018-07-15T21:33:22.401Z,22.00
2018-07-15T21:35:50.765Z,21.90
2018-07-15T21:38:19.129Z,21.90
2018-07-15T21:40:47.538Z,21.80
2018-07-15T21:43:15.881Z,21.70
2018-07-15T21:45:44.242Z,21.70
2018-07-15T21:48:12.733Z,21.60
2018-07-15T21:50:41.101Z,21.60
2018-07-15T21:53:09.469Z,21.60
2018-07-15T21:55:37.850Z,21.50
2018-07-15T21:58:06.277Z,21.50
2018-07-15T22:00:34.675Z,21.50
2018-07-15T22:03:03.091Z,21.40
2018-07-15T22:05:31.477Z,21.40
2018-07-15T22:08:11.228Z,21.30
2018-07-15T22:10:43.312Z,21.20
2018-07-15T22:13:11.650Z,21.20
2018-07-15T22:15:40.201Z,21.10
2018-07-15T22:18:08.653Z,21.10
2018-07-15T22:20:37.470Z,21.10
2018-07-15T22:23:06.301Z,21.00
2018-07-15T22:25:34.726Z,21.00
2018-07-15T22:28:03.417Z,21.00
2018-07-15T22:30:31.830Z,20.90
2018-07-15T22:33:00.234Z,20.90
2018-07-15T22:35:28.621Z,20.80
2018-07-15T22:37:57.045Z,20.80
2018-07-15T22:40:25.538Z,20.80
2018-07-15T22:42:53.924Z,20.70
2018-07-15T22:45:22.328Z,20.70
2018-07-15T22:47:50.730Z,20.70
2018-07-15T22:50:19.101Z,20.70
2018-07-15T22:52:47.493Z,20.60
2018-07-15T22:55:15.878Z,20.70
2018-07-15T22:57:44.247Z,20.60
2018-07-15T23:00:12.690Z,20.60
2018-07-15T23:02:41.058Z,20.60
2018-07-15T23:05:48.295Z,20.60
2018-07-15T23:08:16.655Z,20.60
2018-07-15T23:10:45.023Z,20.60
2018-07-15T23:13:13.939Z,20.60
2018-07-15T23:15:42.722Z,20.50
2018-07-15T23:18:11.094Z,20.50
2018-07-15T23:20:40.250Z,20.50
2018-07-15T23:23:09.390Z,20.40
2018-07-15T23:25:37.787Z,20.50
2018-07-15T23:28:07.022Z,20.40
2018-07-15T23:30:36.081Z,20.40
2018-07-15T23:33:04.964Z,20.30
2018-07-15T23:35:33.545Z,20.20
2018-07-15T23:38:01.905Z,20.30
2018-07-15T23:40:30.277Z,20.30
2018-07-15T23:42:59.290Z,20.20
2018-07-15T23:45:28.598Z,20.10
2018-07-15T23:47:57.329Z,20.10
2018-07-15T23:50:25.933Z,20.00
2018-07-15T23:52:54.546Z,20.00
2018-07-15T23:55:23.138Z,20.00
2018-07-15T23:57:52.171Z,20.00
